Time;durP1;ratioP1;P1;durP2;ratioP2;P2;SDS_P1;SDS_P2;PMS_P1;PMS_P2;Temp;Humidity;BMP_temperature;BMP_pressure;BME280_temperature;BME280_humidity;BME280_pressure;Samples;Min_cycle;Max_cycle;Signal;HPM_P1;HPM_P2
2024/01/09 00:00:04;;;;;;;11.53;6.20;;;-3.20;1.00;;;;;;5119196;27;20172;-86
2024/01/09 00:02:30;;;;;;;10.52;5.32;;;-3.20;1.00;;;;;;5116533;27;20263;-87
2024/01/09 00:04:56;;;;;;;8.77;5.30;;;-3.30;1.00;;;;;;5115294;27;20648;-87
2024/01/09 00:07:21;;;;;;;11.80;5.50;;;-3.30;1.00;;;;;;5098305;27;20232;-87
2024/01/09 00:09:47;;;;;;;10.70;6.23;;;-3.30;1.00;;;;;;5096807;27;20180;-87
2024/01/09 00:12:13;;;;;;;9.02;5.50;;;-3.30;1.00;;;;;;5116651;27;20262;-87
2024/01/09 00:14:38;;;;;;;8.80;6.07;;;-3.30;1.00;;;;;;5117497;27;22327;-87
2024/01/09 00:17:04;;;;;;;11.50;5.60;;;-3.30;1.00;;;;;;5116289;27;20208;-87
2024/01/09 00:19:30;;;;;;;10.30;6.03;;;-3.30;1.00;;;;;;5114673;27;20275;-87
2024/01/09 00:21:56;;;;;;;9.90;5.63;;;-3.30;1.00;;;;;;5114471;27;20775;-87
2024/01/09 00:24:21;;;;;;;9.20;4.80;;;-3.30;1.00;;;;;;5113623;27;20203;-87
2024/01/09 00:26:47;;;;;;;8.23;5.10;;;-3.30;1.00;;;;;;5113004;27;20881;-85
2024/01/09 00:29:12;;;;;;;8.57;5.20;;;-3.30;1.00;;;;;;5117881;27;20180;-87
2024/01/09 00:31:38;;;;;;;10.63;6.13;;;-3.40;1.00;;;;;;5115745;27;20191;-87
2024/01/09 00:34:04;;;;;;;6.23;4.53;;;-3.30;1.00;;;;;;5098188;27;20211;-87
2024/01/09 00:36:29;;;;;;;10.00;5.93;;;-3.40;1.00;;;;;;5118196;27;20187;-87
2024/01/09 00:38:55;;;;;;;10.37;5.40;;;-3.40;1.00;;;;;;5120761;27;20201;-85
2024/01/09 00:41:20;;;;;;;12.57;5.57;;;-3.40;1.00;;;;;;5101041;27;20175;-86
2024/01/09 00:43:46;;;;;;;9.07;4.97;;;-3.40;1.00;;;;;;5116771;27;20223;-86
2024/01/09 00:46:12;;;;;;;13.20;6.67;;;-3.40;1.00;;;;;;5117767;27;20183;-86
2024/01/09 00:48:37;;;;;;;7.40;5.07;;;-3.40;1.00;;;;;;5114947;27;20847;-88
2024/01/09 00:51:04;;;;;;;8.13;4.63;;;-3.40;1.00;;;;;;5115567;27;20262;-87
2024/01/09 00:53:29;;;;;;;10.43;5.95;;;-3.40;1.00;;;;;;5104479;27;20461;-87
2024/01/09 00:55:56;;;;;;;10.17;5.60;;;-3.40;1.00;;;;;;5104623;27;20186;-86
2024/01/09 00:58:21;;;;;;;10.15;5.75;;;-3.40;1.00;;;;;;5116468;27;20238;-87
2024/01/09 01:00:47;;;;;;;8.23;5.13;;;-3.50;1.00;;;;;;5115512;27;20699;-86
2024/01/09 01:03:12;;;;;;;12.60;5.70;;;-3.50;1.00;;;;;;5106943;27;20274;-87
2024/01/09 01:05:38;;;;;;;11.67;6.43;;;-3.50;1.00;;;;;;5113711;27;20203;-87
2024/01/09 01:08:04;;;;;;;9.80;6.17;;;-3.60;1.00;;;;;;5109054;27;20218;-87
2024/01/09 01:10:30;;;;;;;12.48;6.25;;;-3.50;1.00;;;;;;5113421;27;20187;-86
2024/01/09 01:12:55;;;;;;;10.43;6.53;;;-3.50;1.00;;;;;;5102113;27;20608;-87
2024/01/09 01:15:21;;;;;;;9.80;5.00;;;-3.50;1.00;;;;;;5116787;27;20207;-87
2024/01/09 01:17:46;;;;;;;8.33;5.47;;;-3.50;1.00;;;;;;5101388;27;20259;-87
2024/01/09 01:20:12;;;;;;;8.97;5.77;;;-3.60;1.00;;;;;;5117784;27;20203;-86
2024/01/09 01:22:37;;;;;;;9.70;6.07;;;-3.60;1.00;;;;;;5116613;27;20183;-87
2024/01/09 01:25:03;;;;;;;8.63;4.53;;;-3.60;1.00;;;;;;5119781;27;20218;-87
2024/01/09 01:27:29;;;;;;;9.43;5.80;;;-3.60;1.00;;;;;;5100127;27;20206;-86
2024/01/09 01:29:55;;;;;;;11.80;5.83;;;-3.60;1.00;;;;;;5100124;27;20407;-87
2024/01/09 01:32:20;;;;;;;7.03;4.80;;;-3.60;1.00;;;;;;5117591;27;20190;-87
2024/01/09 01:34:46;;;;;;;9.73;5.70;;;-3.60;1.00;;;;;;5115704;27;20220;-86
2024/01/09 01:37:11;;;;;;;10.27;5.53;;;-3.60;1.00;;;;;;5120383;27;20183;-86
2024/01/09 01:39:37;;;;;;;9.60;5.47;;;-3.60;1.00;;;;;;5117831;27;20684;-87
2024/01/09 01:42:03;;;;;;;9.90;5.30;;;-3.60;1.00;;;;;;5097597;27;20644;-85
2024/01/09 01:44:28;;;;;;;8.57;5.07;;;-3.60;1.00;;;;;;5096879;27;20210;-87
2024/01/09 01:46:54;;;;;;;11.73;5.57;;;-3.60;1.00;;;;;;5117032;27;20187;-87
2024/01/09 01:49:21;;;;;;;8.70;6.00;;;-3.60;1.00;;;;;;5117378;27;20307;-86
2024/01/09 01:51:49;;;;;;;10.23;6.43;;;-3.70;1.00;;;;;;5100846;27;20176;-87
2024/01/09 01:54:15;;;;;;;10.68;6.28;;;-3.70;1.00;;;;;;5116974;27;20220;-86
2024/01/09 01:56:42;;;;;;;9.93;5.57;;;-3.70;1.00;;;;;;5097704;27;20194;-86
2024/01/09 01:59:10;;;;;;;7.07;5.13;;;-3.70;1.00;;;;;;5114189;27;20684;-86
2024/01/09 02:01:36;;;;;;;10.65;6.70;;;-3.70;1.00;;;;;;5113525;27;20196;-86
2024/01/09 02:04:03;;;;;;;12.65;5.75;;;-3.70;1.00;;;;;;5117204;27;20244;-86
2024/01/09 02:06:30;;;;;;;10.77;6.70;;;-3.70;1.00;;;;;;5122940;27;20191;-87
2024/01/09 02:08:56;;;;;;;10.43;6.40;;;-3.70;1.00;;;;;;5122898;27;20186;-85
2024/01/09 02:11:21;;;;;;;11.53;6.40;;;-3.70;1.00;;;;;;5114097;27;20187;-86
2024/01/09 02:13:47;;;;;;;8.20;5.17;;;-3.70;1.00;;;;;;5103726;27;20238;-86
2024/01/09 02:16:12;;;;;;;10.27;5.70;;;-3.70;1.00;;;;;;5102618;27;20180;-85
2024/01/09 02:18:38;;;;;;;11.43;5.30;;;-3.70;1.00;;;;;;5110966;27;20178;-86
2024/01/09 02:21:04;;;;;;;8.40;4.97;;;-3.70;1.00;;;;;;5113760;27;20172;-86
2024/01/09 02:23:30;;;;;;;10.90;5.53;;;-3.70;1.00;;;;;;5119109;27;20476;-88
2024/01/09 02:25:55;;;;;;;8.80;6.17;;;-3.80;1.00;;;;;;5115963;27;20830;-86
2024/01/09 02:28:29;;;;;;;9.17;5.90;;;-3.80;1.00;;;;;;5116066;27;20195;-86
2024/01/09 02:30:56;;;;;;;8.52;5.80;;;-3.80;1.00;;;;;;5098010;27;20201;-86
2024/01/09 02:33:22;;;;;;;9.10;5.50;;;-3.80;1.00;;;;;;5116051;27;20179;-86
2024/01/09 02:35:47;;;;;;;9.50;5.87;;;-3.80;1.00;;;;;;5104300;27;20176;-86
2024/01/09 02:38:13;;;;;;;10.13;4.50;;;-3.80;1.00;;;;;;5117109;27;20191;-86
2024/01/09 02:40:38;;;;;;;12.73;6.13;;;-3.80;1.00;;;;;;5101493;27;20247;-86
2024/01/09 02:43:04;;;;;;;11.27;4.83;;;-3.80;1.00;;;;;;5116925;27;20187;-87
2024/01/09 02:45:30;;;;;;;6.47;4.60;;;-3.80;1.00;;;;;;5116801;27;20209;-86
2024/01/09 02:47:55;;;;;;;7.93;5.37;;;-3.80;1.00;;;;;;5122788;27;20443;-87
2024/01/09 02:50:21;;;;;;;8.40;5.37;;;-3.80;1.00;;;;;;5097825;27;20186;-86
2024/01/09 02:52:47;;;;;;;8.60;4.80;;;-3.90;1.00;;;;;;5120415;27;20859;-85
2024/01/09 02:55:13;;;;;;;10.17;5.87;;;-3.80;1.00;;;;;;5105177;27;20254;-86
2024/01/09 02:57:41;;;;;;;7.73;4.63;;;-3.90;1.00;;;;;;5106479;27;20497;-86
2024/01/09 03:00:08;;;;;;;12.40;6.18;;;-3.90;1.00;;;;;;5118924;27;20569;-86
2024/01/09 03:02:35;;;;;;;9.05;4.95;;;-3.90;1.00;;;;;;5116729;27;20656;-86
2024/01/09 03:05:00;;;;;;;7.80;5.18;;;-3.90;1.00;;;;;;5112426;27;20249;-87
2024/01/09 03:07:26;;;;;;;5.50;3.90;;;-4.00;1.00;;;;;;5116751;27;20191;-86
2024/01/09 03:09:52;;;;;;;11.70;5.10;;;-4.00;1.00;;;;;;5112544;27;20183;-86
2024/01/09 03:12:18;;;;;;;9.75;4.57;;;-4.00;1.00;;;;;;5107911;28;20195;-87
2024/01/09 03:14:43;;;;;;;10.27;5.43;;;-4.00;1.00;;;;;;5105248;28;20208;-86
2024/01/09 03:17:09;;;;;;;10.10;5.77;;;-4.00;1.00;;;;;;5105204;27;20213;-86
2024/01/09 03:19:34;;;;;;;10.30;5.57;;;-3.90;1.00;;;;;;5128262;27;20215;-86
2024/01/09 03:22:00;;;;;;;8.93;4.83;;;-3.90;1.00;;;;;;5127939;27;20191;-86
2024/01/09 03:24:25;;;;;;;10.07;5.13;;;-4.00;1.00;;;;;;5128381;27;20199;-86
2024/01/09 03:26:51;;;;;;;9.37;5.23;;;-3.90;1.00;;;;;;5113248;27;20656;-85
2024/01/09 03:29:17;;;;;;;10.63;4.93;;;-3.90;1.00;;;;;;5132264;27;21062;-86
2024/01/09 03:31:43;;;;;;;9.82;5.78;;;-4.00;1.00;;;;;;5127209;27;20198;-86
2024/01/09 03:34:08;;;;;;;9.93;5.73;;;-4.00;1.00;;;;;;5128949;27;20211;-86
2024/01/09 03:36:34;;;;;;;8.33;5.13;;;-4.00;1.00;;;;;;5100874;27;20211;-86
2024/01/09 03:39:00;;;;;;;11.90;5.67;;;-4.00;1.00;;;;;;5108788;27;20188;-86
2024/01/09 03:41:25;;;;;;;8.47;4.10;;;-4.00;1.00;;;;;;5107959;27;20271;-87
2024/01/09 03:43:51;;;;;;;8.43;6.10;;;-4.10;1.00;;;;;;5125875;27;20460;-85
2024/01/09 03:46:16;;;;;;;7.63;5.17;;;-4.10;1.00;;;;;;5112515;27;20215;-87
2024/01/09 03:48:42;;;;;;;10.40;5.17;;;-4.10;1.00;;;;;;5120834;27;20183;-86
2024/01/09 03:51:07;;;;;;;7.67;5.00;;;-4.10;1.00;;;;;;5118281;27;20184;-86
2024/01/09 03:53:33;;;;;;;11.50;5.53;;;-4.10;1.00;;;;;;5100532;27;20229;-87
2024/01/09 03:55:58;;;;;;;9.70;4.80;;;-4.20;1.00;;;;;;5121172;27;22220;-86
2024/01/09 03:58:24;;;;;;;10.10;5.10;;;-4.20;1.00;;;;;;5108809;27;20180;-86
2024/01/09 04:00:49;;;;;;;14.87;5.40;;;-4.20;1.00;;;;;;5120996;27;20244;-87
2024/01/09 04:03:15;;;;;;;9.90;5.20;;;-4.20;1.00;;;;;;5126069;27;20204;-86
2024/01/09 04:05:40;;;;;;;7.83;4.23;;;-4.20;1.00;;;;;;5104136;27;20203;-86
2024/01/09 04:08:06;;;;;;;10.90;5.33;;;-4.20;1.00;;;;;;5123438;27;20239;-86
2024/01/09 04:10:32;;;;;;;6.67;4.60;;;-4.20;1.00;;;;;;5104300;27;20537;-86
2024/01/09 04:12:57;;;;;;;9.87;5.97;;;-4.20;1.00;;;;;;5122411;27;20190;-87
2024/01/09 04:15:23;;;;;;;14.63;5.40;;;-4.20;1.00;;;;;;5134085;22;20225;-86
2024/01/09 04:17:49;;;;;;;11.37;5.67;;;-4.20;1.00;;;;;;5095760;28;20183;-87
2024/01/09 04:20:15;;;;;;;9.77;5.60;;;-4.30;1.00;;;;;;5098488;28;20173;-87
2024/01/09 04:22:41;;;;;;;9.32;4.75;;;-4.20;1.00;;;;;;5080589;28;20233;-86
2024/01/09 04:25:07;;;;;;;14.17;4.40;;;-4.20;1.00;;;;;;5096145;28;20200;-88
2024/01/09 04:27:33;;;;;;;7.63;4.53;;;-4.20;1.00;;;;;;5097416;28;20670;-86
2024/01/09 04:29:59;;;;;;;6.57;4.60;;;-4.30;1.00;;;;;;5079487;28;20321;-87
2024/01/09 04:32:24;;;;;;;10.27;5.07;;;-4.20;1.00;;;;;;5072388;28;20191;-87
2024/01/09 04:34:50;;;;;;;9.67;5.53;;;-4.20;1.00;;;;;;5075881;28;20213;-89
2024/01/09 04:37:16;;;;;;;8.10;4.33;;;-4.20;1.00;;;;;;5077018;28;20203;-88
2024/01/09 04:39:42;;;;;;;7.00;4.20;;;-4.30;1.00;;;;;;5077861;28;20181;-87
2024/01/09 04:42:07;;;;;;;7.00;3.87;;;-4.30;1.00;;;;;;5070210;28;20271;-87
2024/01/09 04:44:33;;;;;;;11.77;5.03;;;-4.30;1.00;;;;;;5082708;28;20219;-87
2024/01/09 04:46:59;;;;;;;12.57;4.17;;;-4.30;1.00;;;;;;5071712;28;20216;-86
2024/01/09 04:49:25;;;;;;;9.88;4.72;;;-4.30;1.00;;;;;;5091239;28;20765;-86
2024/01/09 04:51:51;;;;;;;6.10;4.00;;;-4.30;1.00;;;;;;5071042;28;20188;-86
2024/01/09 04:54:16;;;;;;;5.77;3.93;;;-4.30;1.00;;;;;;5089141;28;20201;-87
2024/01/09 04:56:43;;;;;;;9.37;4.10;;;-4.40;1.00;;;;;;5087592;28;20467;-87
2024/01/09 04:59:08;;;;;;;7.38;3.90;;;-4.40;1.00;;;;;;5089802;28;20173;-86
2024/01/09 05:01:34;;;;;;;8.33;4.40;;;-4.40;1.00;;;;;;5092086;28;20178;-86
2024/01/09 05:03:59;;;;;;;6.47;3.90;;;-4.40;1.00;;;;;;5086791;28;20182;-86
2024/01/09 05:06:25;;;;;;;7.33;4.50;;;-4.40;1.00;;;;;;5072708;28;20686;-87
2024/01/09 05:08:50;;;;;;;7.40;5.53;;;-4.40;1.00;;;;;;5091019;28;20177;-87
2024/01/09 05:11:16;;;;;;;7.20;4.40;;;-4.40;1.00;;;;;;5085339;28;20655;-87
2024/01/09 05:13:42;;;;;;;7.27;4.10;;;-4.40;1.00;;;;;;5076168;28;20670;-88
2024/01/09 05:16:07;;;;;;;6.47;4.50;;;-4.40;1.00;;;;;;5087297;28;20208;-87
2024/01/09 05:18:33;;;;;;;6.40;3.70;;;-4.40;1.00;;;;;;5077871;28;20185;-86
2024/01/09 05:20:58;;;;;;;11.73;4.47;;;-4.40;1.00;;;;;;5096452;28;20188;-89
2024/01/09 05:23:24;;;;;;;6.63;4.23;;;-4.40;1.00;;;;;;5090819;28;20185;-88
2024/01/09 05:25:49;;;;;;;9.30;4.40;;;-4.40;1.00;;;;;;5094190;28;20235;-88
2024/01/09 05:28:18;;;;;;;7.60;5.20;;;-4.40;1.00;;;;;;5096522;28;20179;-86
2024/01/09 05:30:44;;;;;;;10.90;4.15;;;-4.40;1.00;;;;;;5078938;28;20185;-87
2024/01/09 05:33:09;;;;;;;9.30;4.57;;;-4.50;1.00;;;;;;5079473;28;20191;-87
2024/01/09 05:35:35;;;;;;;5.33;3.60;;;-4.50;1.00;;;;;;5095538;28;20219;-87
2024/01/09 05:38:01;;;;;;;6.97;4.73;;;-4.50;1.00;;;;;;5099647;28;20203;-87
2024/01/09 05:40:26;;;;;;;5.10;3.20;;;-4.50;1.00;;;;;;5091059;28;20184;-87
2024/01/09 05:42:52;;;;;;;7.20;4.30;;;-4.50;1.00;;;;;;5100609;28;20177;-87
2024/01/09 05:45:18;;;;;;;7.97;4.40;;;-4.50;1.00;;;;;;5077916;28;20430;-88
2024/01/09 05:47:43;;;;;;;9.27;5.07;;;-4.50;1.00;;;;;;5097182;28;20651;-87
2024/01/09 05:50:09;;;;;;;8.00;4.53;;;-4.50;1.00;;;;;;5092791;28;20820;-87
2024/01/09 05:52:39;;;;;;;7.70;4.43;;;-4.50;1.00;;;;;;5081993;28;20185;-85
2024/01/09 05:55:05;;;;;;;8.98;5.78;;;-4.50;1.00;;;;;;5079226;28;20474;-86
2024/01/09 05:57:31;;;;;;;11.02;5.55;;;-4.60;1.00;;;;;;5095916;28;20199;-88
2024/01/09 05:59:57;;;;;;;8.27;4.73;;;-4.60;1.00;;;;;;5093959;28;20207;-88
2024/01/09 06:02:23;;;;;;;12.37;5.60;;;-4.60;1.00;;;;;;5072900;28;20946;-85
2024/01/09 06:04:49;;;;;;;7.75;4.55;;;-4.60;1.00;;;;;;5096439;28;20459;-87
2024/01/09 06:07:17;;;;;;;8.20;3.93;;;-4.60;1.00;;;;;;5094017;28;20214;-87
2024/01/09 06:09:43;;;;;;;5.88;3.70;;;-4.60;1.00;;;;;;5094864;28;20267;-85
2024/01/09 06:12:09;;;;;;;7.65;4.60;;;-4.60;1.00;;;;;;5090029;28;20208;-87
2024/01/09 06:14:34;;;;;;;8.50;5.20;;;-4.60;1.00;;;;;;5099189;28;20217;-87
2024/01/09 06:17:00;;;;;;;10.10;5.20;;;-4.60;1.00;;;;;;5094692;28;20235;-87
2024/01/09 06:19:25;;;;;;;8.43;4.90;;;-4.60;1.00;;;;;;5094034;28;20292;-87
2024/01/09 06:21:51;;;;;;;7.00;4.43;;;-4.60;1.00;;;;;;5093070;28;20563;-88
2024/01/09 06:24:16;;;;;;;7.13;4.50;;;-4.70;1.00;;;;;;5095202;28;20185;-87
2024/01/09 06:26:42;;;;;;;7.43;4.90;;;-4.70;1.00;;;;;;5090398;28;20662;-86
2024/01/09 06:29:08;;;;;;;8.43;4.60;;;-4.70;1.00;;;;;;5095192;28;20180;-87
2024/01/09 06:31:33;;;;;;;7.10;3.60;;;-4.60;1.00;;;;;;5098376;28;20195;-86
2024/01/09 06:33:59;;;;;;;7.20;4.93;;;-4.70;1.00;;;;;;5097523;28;20226;-90
2024/01/09 06:36:24;;;;;;;10.13;4.63;;;-4.60;1.00;;;;;;5092247;28;20197;-87
2024/01/09 06:38:50;;;;;;;9.57;4.70;;;-4.70;1.00;;;;;;5096823;28;20189;-87
2024/01/09 06:41:15;;;;;;;9.50;5.50;;;-4.70;1.00;;;;;;5093797;28;20200;-87
2024/01/09 06:43:41;;;;;;;10.33;4.10;;;-4.70;1.00;;;;;;5071828;28;20211;-89
2024/01/09 06:46:07;;;;;;;8.20;4.50;;;-4.70;1.00;;;;;;5093622;28;20212;-88
2024/01/09 06:48:32;;;;;;;6.53;3.95;;;-4.70;1.00;;;;;;5098018;28;20195;-88
2024/01/09 06:50:58;;;;;;;11.77;5.70;;;-4.70;1.00;;;;;;5098905;28;20208;-88
2024/01/09 06:53:24;;;;;;;15.67;5.10;;;-4.80;1.00;;;;;;5097658;28;20247;-88
2024/01/09 06:55:49;;;;;;;15.00;4.10;;;-4.70;1.00;;;;;;5098204;28;20196;-88
2024/01/09 06:58:16;;;;;;;10.73;4.73;;;-4.70;1.00;;;;;;5095029;28;20409;-88
2024/01/09 07:00:43;;;;;;;8.10;4.88;;;-4.70;1.00;;;;;;5094813;28;20177;-87
2024/01/09 07:03:08;;;;;;;6.85;4.63;;;-4.70;1.00;;;;;;5097889;28;20176;-87
2024/01/09 07:05:34;;;;;;;7.53;5.07;;;-4.70;1.00;;;;;;5094927;28;20227;-87
2024/01/09 07:07:59;;;;;;;12.10;5.40;;;-4.70;1.00;;;;;;5095483;28;20188;-87
2024/01/09 07:10:25;;;;;;;9.60;4.73;;;-4.60;1.00;;;;;;5070522;28;20199;-85
2024/01/09 07:12:50;;;;;;;6.80;4.57;;;-4.70;1.00;;;;;;5088657;28;20218;-86
2024/01/09 07:15:16;;;;;;;9.90;5.10;;;-4.70;1.00;;;;;;5082059;28;20244;-86
2024/01/09 07:17:42;;;;;;;11.37;5.57;;;-4.60;1.00;;;;;;5083648;28;20223;-87
2024/01/09 07:20:07;;;;;;;9.25;4.82;;;-4.60;1.00;;;;;;5083906;28;20649;-86
2024/01/09 07:22:33;;;;;;;7.93;4.70;;;-4.60;1.00;;;;;;5082392;28;20396;-85
2024/01/09 07:24:59;;;;;;;7.50;4.73;;;-4.70;1.00;;;;;;5078778;28;20200;-87
2024/01/09 07:27:24;;;;;;;10.03;5.80;;;-4.70;1.00;;;;;;5079233;28;20715;-87
2024/01/09 07:29:50;;;;;;;12.83;6.70;;;-4.60;1.00;;;;;;5060677;28;20180;-86
2024/01/09 07:32:16;;;;;;;9.87;5.77;;;-4.60;1.00;;;;;;5089127;28;20184;-87
2024/01/09 07:34:43;;;;;;;8.00;4.93;;;-4.50;1.00;;;;;;5091117;28;20197;-87
2024/01/09 07:37:14;;;;;;;10.00;4.45;;;-4.40;1.00;;;;;;5085384;28;20686;-85
2024/01/09 07:39:41;;;;;;;9.73;5.07;;;-4.30;1.00;;;;;;5093163;28;20287;-85
2024/01/09 07:42:07;;;;;;;10.45;5.03;;;-4.20;1.00;;;;;;5089949;28;20188;-84
2024/01/09 07:44:36;;;;;;;9.18;5.30;;;-4.20;1.00;;;;;;5088749;28;20208;-85
2024/01/09 07:47:33;;;;;;;9.25;5.65;;;-4.10;1.00;;;;;;5091584;28;20198;-87
2024/01/09 07:50:03;;;;;;;12.20;6.63;;;-4.10;1.00;;;;;;5059104;28;20178;-86
2024/01/09 07:52:29;;;;;;;12.57;6.18;;;-4.10;1.00;;;;;;5073439;28;20240;-87
2024/01/09 07:54:54;;;;;;;11.90;6.70;;;-4.10;1.00;;;;;;5095088;28;20232;-86
2024/01/09 07:57:29;;;;;;;9.57;4.77;;;-4.10;1.00;;;;;;5075651;28;20197;-86
2024/01/09 07:59:58;;;;;;;9.57;5.20;;;-4.10;1.00;;;;;;5076932;28;20569;-82
2024/01/09 08:02:46;;;;;;;10.93;5.40;;;-4.00;1.00;;;;;;5075663;28;20189;-85
2024/01/09 08:05:12;;;;;;;9.60;5.53;;;-4.00;1.00;;;;;;5078377;28;20222;-86
2024/01/09 08:07:37;;;;;;;9.50;5.25;;;-4.00;1.00;;;;;;5073539;28;20619;-84
2024/01/09 08:10:06;;;;;;;6.07;4.00;;;-4.00;1.00;;;;;;5081322;28;20267;-86
2024/01/09 08:12:32;;;;;;;11.30;5.68;;;-3.90;1.00;;;;;;5078088;28;20435;-87
2024/01/09 08:14:58;;;;;;;12.00;5.33;;;-3.90;1.00;;;;;;5076115;28;20228;-87
2024/01/09 08:17:24;;;;;;;10.60;5.17;;;-3.80;1.00;;;;;;5096489;28;20255;-86
2024/01/09 08:19:49;;;;;;;11.20;4.97;;;-3.80;1.00;;;;;;5082500;28;20559;-82
2024/01/09 08:22:16;;;;;;;9.33;5.40;;;-3.70;1.00;;;;;;5076826;28;20430;-84
2024/01/09 08:24:42;;;;;;;7.60;4.95;;;-3.50;1.00;;;;;;5075081;28;20551;-84
2024/01/09 08:27:08;;;;;;;8.20;4.33;;;-2.90;1.00;;;;;;5080261;28;20202;-86
2024/01/09 08:29:34;;;;;;;14.10;5.70;;;-2.20;1.00;;;;;;5075737;28;20526;-84
2024/01/09 08:32:00;;;;;;;9.07;5.40;;;-1.50;1.00;;;;;;5078582;28;20430;-85
2024/01/09 08:34:26;;;;;;;9.43;4.80;;;-0.30;99.90;;;;;;5074850;28;20228;-82
2024/01/09 08:36:52;;;;;;;9.65;5.90;;;0.50;99.90;;;;;;5077592;28;20458;-85
2024/01/09 08:39:20;;;;;;;9.77;4.73;;;2.40;99.90;;;;;;5073870;28;20165;-85
2024/01/09 08:41:46;;;;;;;8.07;5.50;;;4.00;99.90;;;;;;5077064;28;20769;-86
2024/01/09 08:44:12;;;;;;;10.65;5.70;;;5.10;99.90;;;;;;5074118;28;20997;-84
2024/01/09 08:46:38;;;;;;;9.50;6.43;;;4.90;99.90;;;;;;5072994;28;20172;-85
2024/01/09 08:49:03;;;;;;;10.17;6.20;;;4.30;99.90;;;;;;5094629;28;20475;-85
2024/01/09 08:51:29;;;;;;;11.30;8.07;;;4.10;99.90;;;;;;5076390;28;20181;-85
2024/01/09 08:53:56;;;;;;;9.93;6.40;;;4.70;99.90;;;;;;5076712;28;20285;-86
2024/01/09 08:56:24;;;;;;;8.20;6.20;;;5.40;99.90;;;;;;5076481;28;20197;-85
2024/01/09 08:59:00;;;;;;;11.40;7.03;;;5.80;99.90;;;;;;5079731;28;20426;-84
2024/01/09 09:01:26;;;;;;;8.07;6.72;;;5.10;99.90;;;;;;5096301;28;20252;-84
2024/01/09 09:03:56;;;;;;;8.57;5.95;;;4.30;99.90;;;;;;5092076;28;20196;-85
2024/01/09 09:06:22;;;;;;;7.10;5.70;;;3.70;99.90;;;;;;5077501;28;20204;-83
2024/01/09 09:08:47;;;;;;;11.50;6.53;;;3.20;99.90;;;;;;5086586;28;20192;-84
2024/01/09 09:11:15;;;;;;;11.10;5.67;;;2.60;99.90;;;;;;5071920;28;20985;-86
2024/01/09 09:13:44;;;;;;;14.18;6.28;;;2.10;99.90;;;;;;5088351;28;20196;-85
2024/01/09 09:16:09;;;;;;;12.48;6.18;;;1.60;99.90;;;;;;5071923;28;20213;-86
2024/01/09 09:18:35;;;;;;;9.83;5.93;;;1.20;99.90;;;;;;5085594;28;20189;-87
2024/01/09 09:21:02;;;;;;;10.80;6.17;;;0.80;99.90;;;;;;5077221;28;20445;-85
2024/01/09 09:23:30;;;;;;;11.15;5.88;;;0.40;99.90;;;;;;5080101;28;20530;-87
2024/01/09 09:26:04;;;;;;;9.65;5.55;;;0.20;99.90;;;;;;5091573;28;20224;-85
2024/01/09 09:28:30;;;;;;;10.70;5.70;;;-0.10;99.90;;;;;;5077678;28;20200;-86
2024/01/09 09:34:12;;;;;;;11.73;6.00;;;-0.40;99.90;;;;;;5086088;28;20205;-85
2024/01/09 09:36:39;;;;;;;10.70;5.25;;;-0.60;99.90;;;;;;5090489;28;20204;-85
2024/01/09 09:39:23;;;;;;;16.17;5.97;;;-0.70;99.90;;;;;;5092452;28;20259;-84
2024/01/09 09:41:58;;;;;;;10.15;5.78;;;-0.70;99.90;;;;;;5086145;28;20177;-85
2024/01/09 09:44:28;;;;;;;14.27;8.55;;;-0.80;99.90;;;;;;5059676;28;20188;-86
2024/01/09 09:46:58;;;;;;;12.18;6.70;;;-0.80;99.90;;;;;;5073567;28;20219;-86
2024/01/09 09:49:25;;;;;;;11.10;5.60;;;-0.80;99.90;;;;;;5071823;28;20184;-85
2024/01/09 09:52:00;;;;;;;6.85;5.30;;;-0.90;99.90;;;;;;5072772;28;20583;-85
2024/01/09 09:54:39;;;;;;;8.95;5.40;;;-0.90;99.90;;;;;;5076727;28;20192;-85
2024/01/09 09:57:08;;;;;;;12.93;6.25;;;-0.90;99.90;;;;;;5089747;28;20166;-85
2024/01/09 09:59:34;;;;;;;8.40;5.22;;;-0.90;99.90;;;;;;5055852;28;20187;-86
2024/01/09 10:02:06;;;;;;;9.60;6.10;;;-0.80;99.90;;;;;;5059824;28;20178;-86
2024/01/09 10:04:46;;;;;;;11.10;6.00;;;-0.80;99.90;;;;;;5083520;28;20630;-85
2024/01/09 10:07:20;;;;;;;11.55;5.43;;;-0.80;99.90;;;;;;5087332;28;20168;-86
2024/01/09 10:09:51;;;;;;;11.35;6.07;;;-0.80;99.90;;;;;;5072340;28;20177;-84
2024/01/09 10:12:19;;;;;;;8.80;5.38;;;-0.70;99.90;;;;;;5065291;28;20551;-87
2024/01/09 10:15:11;;;;;;;8.73;6.05;;;-0.70;99.90;;;;;;5083926;28;20212;-85
2024/01/09 10:17:40;;;;;;;7.60;5.05;;;-0.70;99.90;;;;;;5082504;28;20168;-85
2024/01/09 10:20:11;;;;;;;9.20;5.15;;;-0.70;99.90;;;;;;5083860;28;20531;-84
2024/01/09 10:22:38;;;;;;;9.95;5.88;;;-0.70;99.90;;;;;;5083797;28;20173;-85
2024/01/09 10:25:10;;;;;;;8.48;5.03;;;-0.70;99.90;;;;;;5082719;28;20261;-86
2024/01/09 10:27:36;;;;;;;12.77;6.05;;;-0.60;99.90;;;;;;5065982;28;20173;-85
2024/01/09 10:30:04;;;;;;;10.80;5.65;;;-0.60;99.90;;;;;;5081887;28;20181;-85
2024/01/09 10:32:32;;;;;;;10.38;5.53;;;-0.60;99.90;;;;;;5083368;28;20177;-86
2024/01/09 10:34:58;;;;;;;8.27;5.45;;;-0.60;99.90;;;;;;5064248;28;20204;-86
2024/01/09 10:37:24;;;;;;;10.50;6.00;;;-0.60;99.90;;;;;;5074432;28;20191;-85
2024/01/09 10:39:50;;;;;;;11.00;6.65;;;-0.60;99.90;;;;;;5095800;28;20466;-85
2024/01/09 10:42:16;;;;;;;9.60;5.40;;;-0.60;99.90;;;;;;5088053;28;20195;-86
2024/01/09 10:44:42;;;;;;;12.55;6.28;;;-0.60;99.90;;;;;;5074968;28;20485;-85
2024/01/09 10:47:09;;;;;;;8.43;5.60;;;-0.60;99.90;;;;;;5094232;28;20180;-85
2024/01/09 10:49:38;;;;;;;11.57;5.63;;;-0.50;99.90;;;;;;5093141;28;20255;-86
2024/01/09 10:52:05;;;;;;;11.15;5.50;;;-0.40;99.90;;;;;;5094383;28;20202;-86
2024/01/09 10:54:33;;;;;;;14.43;7.03;;;-0.40;99.90;;;;;;5093068;28;20212;-85
2024/01/09 10:57:01;;;;;;;11.85;6.32;;;-0.50;99.90;;;;;;5094643;28;20187;-85
2024/01/09 10:59:27;;;;;;;8.57;5.10;;;-0.50;99.90;;;;;;5092385;28;20211;-87
2024/01/09 11:01:53;;;;;;;10.02;7.22;;;-0.50;99.90;;;;;;5070922;28;20192;-85
2024/01/09 11:04:18;;;;;;;9.90;5.80;;;-0.50;99.90;;;;;;5076972;28;20180;-87
2024/01/09 11:06:47;;;;;;;11.87;6.50;;;-0.40;99.90;;;;;;5094443;28;20654;-87
2024/01/09 11:09:15;;;;;;;12.70;7.45;;;-0.40;99.90;;;;;;5096596;28;20251;-86
2024/01/09 11:11:42;;;;;;;14.27;6.43;;;-0.40;99.90;;;;;;5094625;28;20329;-86
2024/01/09 11:14:10;;;;;;;8.77;5.10;;;-0.40;99.90;;;;;;5085093;28;20560;-87
2024/01/09 11:16:40;;;;;;;12.35;6.68;;;-0.40;99.90;;;;;;5091394;28;20216;-87
2024/01/09 11:19:07;;;;;;;8.10;5.47;;;-0.40;99.90;;;;;;5067467;28;20189;-87
2024/01/09 11:21:33;;;;;;;6.15;4.72;;;-0.30;99.90;;;;;;5069270;28;20181;-87
2024/01/09 11:24:02;;;;;;;8.23;5.60;;;-0.30;99.90;;;;;;5072457;28;20646;-87
2024/01/09 11:26:34;;;;;;;9.65;4.85;;;-0.20;99.90;;;;;;5090547;28;20450;-87
2024/01/09 11:28:59;;;;;;;11.02;6.00;;;-0.10;99.90;;;;;;5068124;28;20203;-85
2024/01/09 11:31:27;;;;;;;8.57;4.57;;;0.10;99.90;;;;;;5097257;28;20180;-85
2024/01/09 11:33:56;;;;;;;10.98;6.32;;;1.10;99.90;;;;;;5093009;28;20203;-83
2024/01/09 11:36:28;;;;;;;13.00;7.07;;;2.60;99.90;;;;;;5068817;28;20228;-85
2024/01/09 11:38:54;;;;;;;9.30;5.80;;;4.10;99.90;;;;;;5094421;28;20225;-86
2024/01/09 11:41:29;;;;;;;12.23;6.60;;;5.50;99.90;;;;;;5094756;28;20425;-87
2024/01/09 11:44:11;;;;;;;7.53;5.20;;;6.50;99.90;;;;;;5078232;28;20429;-86
2024/01/09 11:46:37;;;;;;;9.97;5.83;;;7.50;99.90;;;;;;5096045;28;20454;-86
2024/01/09 11:49:05;;;;;;;8.07;5.73;;;7.90;99.90;;;;;;5100314;28;20426;-84
2024/01/09 11:51:33;;;;;;;8.53;6.00;;;8.40;99.90;;;;;;5099902;28;20422;-83
2024/01/09 11:54:00;;;;;;;9.00;6.17;;;8.70;99.90;;;;;;5088625;28;20463;-84
2024/01/09 11:56:34;;;;;;;9.60;6.60;;;9.20;99.90;;;;;;5082148;28;20538;-83
2024/01/09 11:59:00;;;;;;;9.43;6.07;;;9.40;99.90;;;;;;5095037;28;20442;-84
2024/01/09 12:01:26;;;;;;;12.70;6.40;;;9.70;99.90;;;;;;5073314;28;20954;-84
2024/01/09 12:03:57;;;;;;;7.80;6.00;;;9.80;99.90;;;;;;5096836;28;20958;-84
2024/01/09 12:06:33;;;;;;;11.27;6.30;;;9.90;99.90;;;;;;5098188;28;20446;-84
2024/01/09 12:08:59;;;;;;;8.70;6.80;;;9.90;99.90;;;;;;5084971;28;20418;-84
2024/01/09 12:11:24;;;;;;;10.07;6.13;;;10.10;99.90;;;;;;5091631;28;20431;-85
2024/01/09 12:14:00;;;;;;;12.10;5.80;;;10.00;99.90;;;;;;5092810;28;20974;-84
2024/01/09 12:16:29;;;;;;;9.30;6.07;;;10.00;99.90;;;;;;5096966;28;20215;-84
2024/01/09 12:18:59;;;;;;;9.83;6.50;;;10.10;99.90;;;;;;5094197;28;20430;-85
2024/01/09 12:21:29;;;;;;;8.27;6.00;;;10.20;99.90;;;;;;5095279;28;20465;-85
2024/01/09 12:23:57;;;;;;;8.50;7.53;;;10.20;99.90;;;;;;5095372;28;20442;-84
2024/01/09 12:26:24;;;;;;;8.17;5.60;;;10.30;99.90;;;;;;5076765;28;20454;-85
2024/01/09 12:28:50;;;;;;;8.60;5.73;;;10.30;99.90;;;;;;5075336;28;20433;-86
2024/01/09 12:31:22;;;;;;;8.13;5.60;;;10.30;99.90;;;;;;5072076;28;20438;-86
2024/01/09 12:33:47;;;;;;;11.07;6.63;;;10.40;99.90;;;;;;5090943;28;20466;-86
2024/01/09 12:36:14;;;;;;;7.43;5.80;;;10.40;99.90;;;;;;5075863;28;20453;-86
2024/01/09 12:38:41;;;;;;;8.17;6.33;;;10.20;99.90;;;;;;5074540;28;20181;-85
2024/01/09 12:41:06;;;;;;;8.77;6.37;;;10.50;99.90;;;;;;5091986;28;20970;-86
2024/01/09 12:43:33;;;;;;;9.27;6.50;;;10.50;99.90;;;;;;5090815;28;20443;-86
2024/01/09 12:46:03;;;;;;;7.10;5.97;;;10.50;99.90;;;;;;5083739;28;20204;-87
2024/01/09 12:48:33;;;;;;;7.90;5.90;;;10.20;99.90;;;;;;5090169;28;20515;-85
2024/01/09 12:51:03;;;;;;;9.47;6.53;;;10.20;99.90;;;;;;5075037;28;20798;-86